createdAt,value
2023-01-08T00:00:30.129Z,1.40
2023-01-08T00:01:30.076Z,1.50
2023-01-08T00:02:30.097Z,1.20
2023-01-08T00:03:30.160Z,1.20
2023-01-08T00:04:30.213Z,1.30
2023-01-08T00:05:30.029Z,1.30
2023-01-08T00:06:30.178Z,1.30
2023-01-08T00:07:30.001Z,1.10
2023-01-08T00:08:29.982Z,1.10
2023-01-08T00:09:29.977Z,1.30
2023-01-08T00:10:29.961Z,1.20
2023-01-08T00:11:30.121Z,1.10
2023-01-08T00:12:29.954Z,1.00
2023-01-08T00:13:29.940Z,1.40
2023-01-08T00:14:30.061Z,1.10
2023-01-08T00:15:29.892Z,0.90
2023-01-08T00:16:29.989Z,1.10
2023-01-08T00:17:29.860Z,1.10
2023-01-08T00:18:29.880Z,1.20
2023-01-08T00:19:30.024Z,1.40
2023-01-08T00:20:29.826Z,1.10
2023-01-08T00:21:29.809Z,1.10
2023-01-08T00:22:29.790Z,1.10
2023-01-08T00:23:29.788Z,1.10
2023-01-08T00:24:29.957Z,1.10
2023-01-08T00:25:29.759Z,1.00
2023-01-08T00:26:29.913Z,1.10
2023-01-08T00:27:29.729Z,1.10
2023-01-08T00:28:29.727Z,1.10
2023-01-08T00:29:29.879Z,1.00
2023-01-08T00:30:29.729Z,1.20
2023-01-08T00:31:29.677Z,1.20
2023-01-08T00:32:29.657Z,1.00
2023-01-08T00:33:29.648Z,0.90
2023-01-08T00:34:29.807Z,1.20
2023-01-08T00:35:29.625Z,0.90
2023-01-08T00:36:29.615Z,1.10
2023-01-08T00:37:29.598Z,1.00
2023-01-08T00:38:29.601Z,1.00
2023-01-08T00:39:29.739Z,1.10
2023-01-08T00:40:29.555Z,1.10
2023-01-08T00:41:29.545Z,0.90
2023-01-08T00:42:29.526Z,1.20
2023-01-08T00:43:29.526Z,1.00
2023-01-08T00:44:29.681Z,0.90
2023-01-08T00:45:29.498Z,1.10
2023-01-08T00:46:29.482Z,0.80
2023-01-08T00:47:29.503Z,0.90
2023-01-08T00:48:29.463Z,1.10
2023-01-08T00:49:29.613Z,1.30
2023-01-08T00:50:29.461Z,1.10
2023-01-08T00:51:29.424Z,0.90
2023-01-08T00:52:29.405Z,0.90
2023-01-08T00:53:29.403Z,1.00
2023-01-08T00:54:29.379Z,1.10
2023-01-08T00:55:29.659Z,1.00
2023-01-08T00:56:29.544Z,0.90
2023-01-08T00:57:29.342Z,1.00
2023-01-08T00:58:29.376Z,1.00
2023-01-08T00:59:29.333Z,1.10
2023-01-08T01:00:29.305Z,1.60
2023-01-08T01:01:29.551Z,1.20
2023-01-08T01:02:29.277Z,1.00
2023-01-08T01:03:29.254Z,1.00
2023-01-08T01:04:29.315Z,1.00
2023-01-08T01:05:29.234Z,1.00
2023-01-08T01:06:29.381Z,0.90
2023-01-08T01:07:29.211Z,1.20
2023-01-08T01:08:29.426Z,0.80
2023-01-08T01:09:29.174Z,0.90
2023-01-08T01:10:29.176Z,1.00
2023-01-08T01:11:29.154Z,1.10
2023-01-08T01:12:29.149Z,0.90
2023-01-08T01:13:29.130Z,0.80
2023-01-08T01:14:29.299Z,1.20
2023-01-08T01:15:29.278Z,1.00
2023-01-08T01:16:29.142Z,1.10
2023-01-08T01:17:29.077Z,1.20
2023-01-08T01:18:29.069Z,1.10
2023-01-08T01:19:29.055Z,0.90
2023-01-08T01:20:29.204Z,1.00
2023-01-08T01:21:29.045Z,1.20
2023-01-08T01:22:28.998Z,1.00
2023-01-08T01:23:29.177Z,0.90
2023-01-08T01:24:28.980Z,0.90
2023-01-08T01:25:29.138Z,0.90
2023-01-08T01:26:28.952Z,1.10
2023-01-08T01:27:28.943Z,1.00
2023-01-08T01:28:28.927Z,1.00
2023-01-08T01:29:28.916Z,0.80
2023-01-08T01:30:28.898Z,1.10
2023-01-08T01:31:28.892Z,0.90
2023-01-08T01:32:28.878Z,1.10
2023-01-08T01:33:29.036Z,1.10
2023-01-08T01:34:28.846Z,1.10
2023-01-08T01:35:29.011Z,0.90
2023-01-08T01:36:28.826Z,1.00
2023-01-08T01:37:28.813Z,0.80
2023-01-08T01:38:28.818Z,0.90
2023-01-08T01:39:28.785Z,1.10
2023-01-08T01:40:28.766Z,0.80
2023-01-08T01:41:28.760Z,1.00
2023-01-08T01:42:28.737Z,1.00
2023-01-08T01:43:28.904Z,0.80
2023-01-08T01:44:28.713Z,1.00
2023-01-08T01:45:28.873Z,1.00
2023-01-08T01:46:28.682Z,0.90
2023-01-08T01:47:28.672Z,0.90
2023-01-08T01:48:28.653Z,0.90
2023-01-08T01:49:28.653Z,1.10
2023-01-08T01:50:28.643Z,1.00
2023-01-08T01:51:28.630Z,0.90
2023-01-08T01:52:28.601Z,1.00
2023-01-08T01:53:28.601Z,1.20
2023-01-08T01:54:28.584Z,1.00
2023-01-08T01:55:28.743Z,1.00
2023-01-08T01:56:28.738Z,1.00
2023-01-08T01:57:28.542Z,0.80
2023-01-08T01:58:28.535Z,0.70
2023-01-08T01:59:28.520Z,1.10
2023-01-08T02:00:28.501Z,1.00
2023-01-08T02:01:28.601Z,1.10
2023-01-08T02:02:28.562Z,1.00
2023-01-08T02:03:28.645Z,0.90
2023-01-08T02:04:28.506Z,0.80
2023-01-08T02:05:28.621Z,1.10
2023-01-08T02:06:28.421Z,0.90
2023-01-08T02:07:28.421Z,1.10
2023-01-08T02:08:28.393Z,1.00
2023-01-08T02:09:28.390Z,0.90
2023-01-08T02:10:28.538Z,1.00
2023-01-08T02:11:28.357Z,1.10
2023-01-08T02:12:28.337Z,1.10
2023-01-08T02:13:28.339Z,0.90
2023-01-08T02:14:28.322Z,1.00
2023-01-08T02:15:28.557Z,0.90
2023-01-08T02:16:28.347Z,1.00
2023-01-08T02:17:28.286Z,1.00
2023-01-08T02:18:28.265Z,1.30
2023-01-08T02:19:28.418Z,1.10
2023-01-08T02:20:28.245Z,1.00
2023-01-08T02:21:28.397Z,1.00
2023-01-08T02:22:28.217Z,1.20
2023-01-08T02:23:28.229Z,1.10
2023-01-08T02:24:28.199Z,1.30
2023-01-08T02:25:28.193Z,0.90
2023-01-08T02:26:28.357Z,1.20
2023-01-08T02:27:28.153Z,1.10
2023-01-08T02:28:28.138Z,1.10
2023-01-08T02:29:28.125Z,1.00
2023-01-08T02:30:28.118Z,1.10
2023-01-08T02:31:28.153Z,1.00
2023-01-08T02:32:28.085Z,1.00
2023-01-08T02:33:28.244Z,1.10
2023-01-08T02:34:28.052Z,1.10
2023-01-08T02:35:28.049Z,1.10
2023-01-08T02:36:28.034Z,1.00
2023-01-08T02:37:28.023Z,1.10
2023-01-08T02:38:28.013Z,0.90
2023-01-08T02:39:27.995Z,1.20
2023-01-08T02:40:27.982Z,1.10
2023-01-08T02:41:28.143Z,1.10
2023-01-08T02:42:27.951Z,1.20
2023-01-08T02:43:27.937Z,1.10
2023-01-08T02:44:28.103Z,1.00
2023-01-08T02:45:27.941Z,1.20
2023-01-08T02:46:27.950Z,1.10
2023-01-08T02:47:28.056Z,1.00
2023-01-08T02:48:28.041Z,1.20
2023-01-08T02:49:27.861Z,1.20
2023-01-08T02:50:27.846Z,1.20
2023-01-08T02:51:27.833Z,1.00
2023-01-08T02:52:27.820Z,1.20
2023-01-08T02:53:27.815Z,1.20
2023-01-08T02:54:27.791Z,1.10
2023-01-08T02:55:27.772Z,1.10
2023-01-08T02:56:27.759Z,1.10
2023-01-08T02:57:27.749Z,1.10
2023-01-08T02:58:27.762Z,1.30
2023-01-08T02:59:27.737Z,0.90
2023-01-08T03:00:27.719Z,1.00
2023-01-08T03:01:27.925Z,1.10
2023-01-08T03:02:27.807Z,1.30
2023-01-08T03:03:27.666Z,1.10
2023-01-08T03:04:27.711Z,1.20
2023-01-08T03:05:27.840Z,1.00
2023-01-08T03:06:27.809Z,1.00
2023-01-08T03:07:27.656Z,1.20
2023-01-08T03:08:27.614Z,1.20
2023-01-08T03:09:27.600Z,1.20
2023-01-08T03:10:27.759Z,1.10
2023-01-08T03:11:27.567Z,1.00
2023-01-08T03:12:27.727Z,1.10
2023-01-08T03:13:27.543Z,1.10
2023-01-08T03:14:27.527Z,1.20
2023-01-08T03:15:27.516Z,1.20
2023-01-08T03:16:27.564Z,1.00
2023-01-08T03:17:27.794Z,1.00
2023-01-08T03:18:27.646Z,1.30
2023-01-08T03:19:27.455Z,1.00
2023-01-08T03:20:27.463Z,1.10
2023-01-08T03:21:27.435Z,0.90
2023-01-08T03:22:27.438Z,1.10
2023-01-08T03:23:27.575Z,1.00
2023-01-08T03:24:27.405Z,1.50
2023-01-08T03:25:27.411Z,1.00
2023-01-08T03:26:27.379Z,1.00
2023-01-08T03:27:27.364Z,1.00
2023-01-08T03:28:27.362Z,1.20
2023-01-08T03:29:27.327Z,1.40
2023-01-08T03:30:27.326Z,1.10
2023-01-08T03:31:27.312Z,1.00
2023-01-08T03:32:27.472Z,1.40
2023-01-08T03:33:27.304Z,1.00
2023-01-08T03:34:27.262Z,1.10
2023-01-08T03:35:27.250Z,1.20
2023-01-08T03:36:27.278Z,1.10
2023-01-08T03:37:27.272Z,1.10
2023-01-08T03:38:27.384Z,1.20
2023-01-08T03:39:27.202Z,1.00
2023-01-08T03:40:27.196Z,1.10
2023-01-08T03:41:27.203Z,1.10
2023-01-08T03:42:27.161Z,1.00
2023-01-08T03:43:27.330Z,1.10
2023-01-08T03:44:27.145Z,1.20
2023-01-08T03:45:27.141Z,1.10
2023-01-08T03:46:28.246Z,1.10
2023-01-08T03:47:27.094Z,1.30
2023-01-08T03:48:27.252Z,1.00
2023-01-08T03:49:27.241Z,1.00
2023-01-08T03:50:27.053Z,1.20
2023-01-08T03:51:27.044Z,1.50
2023-01-08T03:52:27.024Z,1.20
2023-01-08T03:53:27.010Z,1.30
2023-01-08T03:54:27.189Z,1.20
2023-01-08T03:55:26.996Z,1.30
2023-01-08T03:56:26.978Z,1.10
2023-01-08T03:57:26.990Z,0.90
2023-01-08T03:58:26.947Z,1.10
2023-01-08T03:59:26.948Z,1.10
2023-01-08T04:00:26.939Z,1.20
2023-01-08T04:01:27.018Z,1.00
2023-01-08T04:02:26.998Z,1.10
2023-01-08T04:03:26.894Z,1.10
2023-01-08T04:04:26.916Z,1.10
2023-01-08T04:05:26.872Z,1.30
2023-01-08T04:06:27.027Z,1.20
2023-01-08T04:07:26.841Z,1.20
2023-01-08T04:08:26.815Z,1.00
2023-01-08T04:09:26.807Z,0.90
2023-01-08T04:10:26.967Z,1.20
2023-01-08T04:11:26.780Z,1.20
2023-01-08T04:12:26.775Z,1.20
2023-01-08T04:13:26.966Z,1.00
2023-01-08T04:14:26.759Z,1.00
2023-01-08T04:15:26.762Z,1.20
2023-01-08T04:16:26.707Z,1.10
2023-01-08T04:17:26.706Z,1.30
2023-01-08T04:18:26.697Z,1.20
2023-01-08T04:19:26.930Z,1.10
2023-01-08T04:20:26.655Z,0.90
2023-01-08T04:21:26.658Z,1.00
2023-01-08T04:22:26.624Z,0.90
2023-01-08T04:23:26.625Z,1.10
2023-01-08T04:24:26.775Z,1.00
2023-01-08T04:25:26.763Z,0.90
2023-01-08T04:26:26.587Z,0.90
2023-01-08T04:27:26.576Z,1.00
2023-01-08T04:28:26.559Z,1.00
2023-01-08T04:29:26.543Z,1.00
2023-01-08T04:30:26.716Z,1.20
2023-01-08T04:31:26.618Z,0.80
2023-01-08T04:32:26.522Z,1.00
2023-01-08T04:33:26.493Z,1.00
2023-01-08T04:34:26.683Z,0.90
2023-01-08T04:35:26.480Z,1.20
2023-01-08T04:36:26.451Z,1.20
2023-01-08T04:37:26.431Z,1.00
2023-01-08T04:38:26.420Z,1.10
2023-01-08T04:39:26.591Z,1.00
2023-01-08T04:40:26.428Z,1.30
2023-01-08T04:41:26.550Z,1.20
2023-01-08T04:42:26.439Z,1.10
2023-01-08T04:43:26.376Z,0.90
2023-01-08T04:44:26.377Z,1.00
2023-01-08T04:45:26.339Z,1.00
2023-01-08T04:46:26.536Z,0.80
2023-01-08T04:47:26.310Z,1.10
2023-01-08T04:48:26.290Z,0.90
2023-01-08T04:49:26.289Z,1.20
2023-01-08T04:50:26.264Z,1.00
2023-01-08T04:51:26.458Z,1.10
2023-01-08T04:52:26.250Z,0.90
2023-01-08T04:53:26.228Z,1.10
2023-01-08T04:54:26.215Z,0.90
2023-01-08T04:55:26.207Z,1.40
2023-01-08T04:56:26.368Z,0.90
2023-01-08T04:57:26.168Z,0.90
2023-01-08T04:58:26.168Z,0.90
2023-01-08T04:59:26.152Z,0.80
2023-01-08T05:00:26.128Z,0.90
2023-01-08T05:01:26.257Z,0.90
2023-01-08T05:02:26.292Z,0.90
2023-01-08T05:03:26.206Z,0.90
2023-01-08T05:04:26.087Z,1.00
2023-01-08T05:05:26.252Z,1.00
2023-01-08T05:06:26.051Z,1.00
2023-01-08T05:07:26.044Z,0.80
2023-01-08T05:08:26.028Z,1.00
2023-01-08T05:09:26.231Z,0.90
2023-01-08T05:10:26.004Z,1.10
2023-01-08T05:11:25.994Z,0.70
2023-01-08T05:12:25.975Z,0.80
2023-01-08T05:13:25.997Z,0.80
2023-01-08T05:14:26.160Z,0.90
2023-01-08T05:15:26.282Z,0.80
2023-01-08T05:16:25.973Z,0.80
2023-01-08T05:17:25.914Z,0.70
2023-01-08T05:18:25.924Z,0.90
2023-01-08T05:19:25.884Z,0.60
2023-01-08T05:20:25.869Z,0.80
2023-01-08T05:21:25.880Z,0.70
2023-01-08T05:22:25.857Z,0.60
2023-01-08T05:23:25.873Z,0.60
2023-01-08T05:24:25.814Z,0.70
2023-01-08T05:25:25.808Z,0.70
2023-01-08T05:26:25.960Z,0.70
2023-01-08T05:27:25.798Z,0.70
2023-01-08T05:28:25.770Z,0.80
2023-01-08T05:29:25.754Z,0.80
2023-01-08T05:30:25.738Z,0.80
2023-01-08T05:31:25.778Z,0.90
2023-01-08T05:32:25.886Z,0.80
2023-01-08T05:33:25.710Z,0.70
2023-01-08T05:34:25.897Z,0.70
2023-01-08T05:35:26.632Z,0.70
2023-01-08T05:36:25.854Z,0.80
2023-01-08T05:37:25.642Z,0.90
2023-01-08T05:38:25.641Z,0.80
2023-01-08T05:39:25.792Z,0.70
2023-01-08T05:40:25.630Z,0.90
2023-01-08T05:41:25.594Z,0.70
2023-01-08T05:42:25.590Z,0.70
2023-01-08T05:43:25.562Z,0.60
2023-01-08T05:44:25.761Z,0.80
2023-01-08T05:45:25.544Z,0.70
2023-01-08T05:46:25.657Z,0.70
2023-01-08T05:47:25.679Z,0.60
2023-01-08T05:48:25.509Z,0.70
2023-01-08T05:49:25.491Z,0.70
2023-01-08T05:50:25.480Z,0.80
2023-01-08T05:51:25.489Z,0.80
2023-01-08T05:52:25.634Z,0.90
2023-01-08T05:53:25.619Z,0.60
2023-01-08T05:54:25.429Z,0.90
2023-01-08T05:55:25.409Z,0.80
2023-01-08T05:56:25.400Z,0.70
2023-01-08T05:57:25.547Z,0.70
2023-01-08T05:58:25.395Z,0.90
2023-01-08T05:59:25.527Z,0.70
2023-01-08T06:00:25.354Z,0.70
2023-01-08T06:01:25.378Z,0.70
2023-01-08T06:02:25.380Z,0.80
2023-01-08T06:03:25.299Z,0.90
2023-01-08T06:04:25.563Z,0.70
2023-01-08T06:05:25.285Z,0.80
2023-01-08T06:06:25.288Z,0.80
2023-01-08T06:07:25.246Z,0.70
2023-01-08T06:08:25.271Z,0.60
2023-01-08T06:09:25.235Z,0.70
2023-01-08T06:10:25.388Z,0.80
2023-01-08T06:11:25.209Z,0.70
2023-01-08T06:12:25.200Z,0.80
2023-01-08T06:13:25.200Z,0.70
2023-01-08T06:14:25.174Z,0.70
2023-01-08T06:15:25.339Z,0.80
2023-01-08T06:16:25.165Z,0.70
2023-01-08T06:17:25.126Z,0.70
2023-01-08T06:18:25.155Z,1.10
2023-01-08T06:19:25.085Z,0.70
2023-01-08T06:20:25.253Z,0.80
2023-01-08T06:21:25.066Z,0.70
2023-01-08T06:22:25.071Z,0.70
2023-01-08T06:23:25.043Z,0.70
2023-01-08T06:24:25.046Z,0.70
2023-01-08T06:25:25.209Z,0.70
2023-01-08T06:26:25.004Z,0.70
2023-01-08T06:27:25.002Z,0.80
2023-01-08T06:28:24.997Z,0.70
2023-01-08T06:29:24.965Z,0.80
2023-01-08T06:30:24.953Z,0.70
2023-01-08T06:31:25.184Z,0.70
2023-01-08T06:32:24.960Z,0.70
2023-01-08T06:33:24.954Z,0.80
2023-01-08T06:34:24.912Z,0.50
2023-01-08T06:35:24.891Z,0.70
2023-01-08T06:36:25.095Z,0.60
2023-01-08T06:37:24.868Z,0.70
2023-01-08T06:38:25.031Z,0.70
2023-01-08T06:39:24.837Z,0.80
2023-01-08T06:40:24.840Z,0.60
2023-01-08T06:41:24.969Z,0.60
2023-01-08T06:42:24.811Z,0.70
2023-01-08T06:43:24.779Z,0.80
2023-01-08T06:44:24.775Z,0.80
2023-01-08T06:45:24.749Z,0.60
2023-01-08T06:46:24.977Z,0.60
2023-01-08T06:47:24.739Z,0.50
2023-01-08T06:48:24.718Z,0.80
2023-01-08T06:49:24.696Z,0.70
2023-01-08T06:50:24.704Z,0.80
2023-01-08T06:51:24.849Z,0.60
2023-01-08T06:52:24.671Z,0.60
2023-01-08T06:53:24.656Z,0.60
2023-01-08T06:54:24.669Z,0.60
2023-01-08T06:55:24.627Z,0.60
2023-01-08T06:56:24.638Z,0.70
2023-01-08T06:57:24.606Z,0.60
2023-01-08T06:58:24.600Z,0.50
2023-01-08T06:59:24.566Z,0.60
2023-01-08T07:00:24.585Z,0.60
2023-01-08T07:01:24.855Z,0.60
2023-01-08T07:02:25.686Z,0.50
2023-01-08T07:03:24.600Z,0.60
2023-01-08T07:04:24.507Z,0.70
2023-01-08T07:05:24.496Z,0.60
2023-01-08T07:06:24.505Z,0.60
2023-01-08T07:07:24.487Z,0.60
2023-01-08T07:08:24.462Z,0.60
2023-01-08T07:09:24.445Z,0.50
2023-01-08T07:10:24.472Z,0.50
2023-01-08T07:11:24.589Z,0.90
2023-01-08T07:12:24.414Z,0.60
2023-01-08T07:13:24.486Z,0.50
2023-01-08T07:14:24.376Z,0.70
2023-01-08T07:15:24.355Z,0.50
2023-01-08T07:16:24.526Z,0.60
2023-01-08T07:17:24.363Z,0.60
2023-01-08T07:18:24.328Z,0.70
2023-01-08T07:19:24.487Z,0.70
2023-01-08T07:20:24.293Z,0.60
2023-01-08T07:21:24.457Z,0.60
2023-01-08T07:22:24.283Z,0.70
2023-01-08T07:23:24.288Z,0.50
2023-01-08T07:24:24.242Z,0.50
2023-01-08T07:25:25.928Z,0.40
2023-01-08T07:26:24.241Z,0.40
2023-01-08T07:27:24.201Z,0.40
2023-01-08T07:28:24.204Z,0.40
2023-01-08T07:29:24.183Z,0.40
2023-01-08T07:30:29.907Z,0.50
2023-01-08T07:31:25.209Z,0.40
2023-01-08T07:32:24.143Z,0.40
2023-01-08T07:33:24.145Z,0.40
2023-01-08T07:34:24.112Z,0.40
2023-01-08T07:35:24.106Z,0.40
2023-01-08T07:36:24.082Z,0.20
2023-01-08T07:37:24.251Z,0.40
2023-01-08T07:38:24.083Z,0.30
2023-01-08T07:39:24.251Z,0.50
2023-01-08T07:40:24.233Z,0.40
2023-01-08T07:41:24.019Z,0.40
2023-01-08T07:42:24.010Z,0.50
2023-01-08T07:43:23.989Z,0.50
2023-01-08T07:44:23.982Z,0.60
2023-01-08T07:45:23.986Z,0.40
2023-01-08T07:46:24.174Z,0.40
2023-01-08T07:47:23.942Z,0.40
2023-01-08T07:48:24.007Z,0.40
2023-01-08T07:49:23.919Z,0.40
2023-01-08T07:50:23.909Z,0.60
2023-01-08T07:51:24.079Z,0.50
2023-01-08T07:52:23.889Z,0.50
2023-01-08T07:53:23.875Z,0.40
2023-01-08T07:54:23.847Z,0.50
2023-01-08T07:55:23.836Z,0.60
2023-01-08T07:56:23.998Z,1.20
2023-01-08T07:57:23.824Z,1.10
2023-01-08T07:58:24.064Z,0.60
2023-01-08T07:59:23.801Z,0.80
2023-01-08T08:00:23.768Z,0.60
2023-01-08T08:01:23.867Z,0.30
2023-01-08T08:02:23.968Z,0.50
2023-01-08T08:03:23.830Z,0.40
2023-01-08T08:04:23.715Z,0.50
2023-01-08T08:05:23.718Z,0.60
2023-01-08T08:06:23.693Z,0.70
2023-01-08T08:07:23.793Z,0.30
2023-01-08T08:08:23.669Z,0.90
2023-01-08T08:09:23.665Z,0.60
2023-01-08T08:10:23.640Z,0.50
2023-01-08T08:11:23.873Z,0.60
2023-01-08T08:12:23.614Z,0.40
2023-01-08T08:13:23.627Z,0.50
2023-01-08T08:14:23.592Z,0.50
2023-01-08T08:15:23.582Z,0.60
2023-01-08T08:16:23.655Z,0.60
2023-01-08T08:17:23.556Z,0.50
2023-01-08T08:18:23.742Z,0.60
2023-01-08T08:19:23.533Z,0.50
2023-01-08T08:20:23.515Z,0.50
2023-01-08T08:21:23.681Z,0.50
2023-01-08T08:22:23.481Z,0.90
2023-01-08T08:23:23.473Z,0.60
2023-01-08T08:24:23.710Z,0.60
2023-01-08T08:25:23.460Z,0.60
2023-01-08T08:26:23.460Z,0.60
2023-01-08T08:27:23.412Z,0.70
2023-01-08T08:28:23.448Z,1.50
2023-01-08T08:29:23.400Z,0.80
2023-01-08T08:30:23.388Z,0.80
2023-01-08T08:31:23.469Z,1.40
2023-01-08T08:32:23.342Z,0.90
2023-01-08T08:33:23.339Z,1.40
2023-01-08T08:34:23.323Z,2.50
2023-01-08T08:35:23.501Z,1.10
2023-01-08T08:36:23.528Z,1.50
2023-01-08T08:37:23.280Z,1.60
2023-01-08T08:38:24.217Z,1.70
2023-01-08T08:39:23.291Z,1.30
2023-01-08T08:40:23.276Z,1.40
2023-01-08T08:41:23.249Z,1.20
2023-01-08T08:42:23.216Z,1.10
2023-01-08T08:43:23.204Z,0.80
2023-01-08T08:44:23.196Z,0.90
2023-01-08T08:45:23.176Z,1.90
2023-01-08T08:46:23.390Z,1.00
2023-01-08T08:47:23.147Z,1.10
2023-01-08T08:48:23.137Z,1.70
2023-01-08T08:49:23.130Z,1.00
2023-01-08T08:50:23.115Z,1.20
2023-01-08T08:51:23.115Z,1.20
2023-01-08T08:52:23.089Z,2.10
2023-01-08T08:53:23.085Z,3.10
2023-01-08T08:54:23.076Z,1.30
2023-01-08T08:55:23.045Z,1.20
2023-01-08T08:56:23.045Z,2.20
2023-01-08T08:57:23.019Z,1.10
2023-01-08T08:58:23.026Z,1.00
2023-01-08T08:59:22.986Z,1.40
2023-01-08T09:00:22.985Z,0.80
2023-01-08T09:01:23.090Z,2.00
2023-01-08T09:02:23.129Z,1.10
2023-01-08T09:03:22.982Z,2.50
2023-01-08T09:04:22.932Z,1.30
2023-01-08T09:05:22.914Z,1.50
2023-01-08T09:06:23.103Z,1.20
2023-01-08T09:07:22.905Z,0.70
2023-01-08T09:08:22.875Z,1.10
2023-01-08T09:09:22.862Z,0.80
2023-01-08T09:10:23.034Z,2.90
2023-01-08T09:11:22.833Z,2.40
2023-01-08T09:12:22.862Z,2.20
2023-01-08T09:13:22.804Z,1.80
2023-01-08T09:14:22.802Z,1.10
2023-01-08T09:15:22.785Z,1.10
2023-01-08T09:16:22.776Z,1.70
2023-01-08T09:17:22.923Z,1.20
2023-01-08T09:18:22.754Z,1.20
2023-01-08T09:19:22.902Z,1.00
2023-01-08T09:20:22.723Z,0.70
2023-01-08T09:21:22.699Z,1.40
2023-01-08T09:22:22.710Z,1.20
2023-01-08T09:23:22.682Z,1.10
2023-01-08T09:24:22.839Z,1.10
2023-01-08T09:25:22.668Z,1.50
2023-01-08T09:26:22.812Z,0.90
2023-01-08T09:27:22.625Z,1.70
2023-01-08T09:28:22.619Z,1.70
2023-01-08T09:29:22.787Z,0.90
2023-01-08T09:30:22.597Z,1.40
2023-01-08T09:31:22.612Z,1.00
2023-01-08T09:32:22.567Z,0.90
2023-01-08T09:33:22.547Z,1.10
2023-01-08T09:34:22.536Z,0.90
2023-01-08T09:35:22.717Z,1.00
2023-01-08T09:36:22.513Z,1.20
2023-01-08T09:37:22.497Z,0.60
2023-01-08T09:38:22.494Z,1.10
2023-01-08T09:39:22.468Z,0.70
2023-01-08T09:40:22.646Z,0.90
2023-01-08T09:41:22.446Z,0.80
2023-01-08T09:42:22.435Z,0.90
2023-01-08T09:43:22.415Z,0.90
2023-01-08T09:44:22.580Z,0.90
2023-01-08T09:45:22.417Z,0.80
2023-01-08T09:46:22.611Z,0.80
2023-01-08T09:47:22.372Z,0.70
2023-01-08T09:48:22.356Z,0.90
2023-01-08T09:49:22.341Z,0.80
2023-01-08T09:50:22.333Z,0.70
2023-01-08T09:51:22.315Z,0.70
2023-01-08T09:52:22.493Z,0.60
2023-01-08T09:53:22.307Z,1.00
2023-01-08T09:54:22.275Z,0.80
2023-01-08T09:55:22.275Z,0.70
2023-01-08T09:56:22.416Z,1.00
2023-01-08T09:57:22.240Z,0.70
2023-01-08T09:58:22.247Z,0.80
2023-01-08T09:59:22.213Z,0.70
2023-01-08T10:00:22.213Z,0.90
2023-01-08T10:01:22.286Z,0.70
2023-01-08T10:02:22.367Z,1.00
2023-01-08T10:03:22.162Z,0.70
2023-01-08T10:04:22.334Z,0.70
2023-01-08T10:05:22.131Z,0.60
2023-01-08T10:06:22.145Z,0.80
2023-01-08T10:07:22.117Z,0.90
2023-01-08T10:08:22.112Z,0.90
2023-01-08T10:09:22.088Z,0.70
2023-01-08T10:10:22.084Z,0.90
2023-01-08T10:11:22.071Z,0.70
2023-01-08T10:12:22.071Z,0.90
2023-01-08T10:13:22.029Z,0.80
2023-01-08T10:14:22.012Z,0.70
2023-01-08T10:15:21.994Z,0.90
2023-01-08T10:16:22.095Z,0.70
2023-01-08T10:17:22.163Z,0.90
2023-01-08T10:18:21.970Z,0.90
2023-01-08T10:19:21.958Z,0.80
2023-01-08T10:20:21.992Z,1.20
2023-01-08T10:21:21.919Z,0.80
2023-01-08T10:22:22.079Z,0.80
2023-01-08T10:23:21.889Z,0.90
2023-01-08T10:24:21.899Z,0.90
2023-01-08T10:25:21.865Z,0.60
2023-01-08T10:26:21.866Z,1.00
2023-01-08T10:27:22.006Z,0.90
2023-01-08T10:28:21.829Z,0.90
2023-01-08T10:29:21.810Z,0.70
2023-01-08T10:30:21.880Z,0.70
2023-01-08T10:31:21.847Z,1.20
2023-01-08T10:32:21.960Z,0.70
2023-01-08T10:33:21.764Z,0.80
2023-01-08T10:34:21.756Z,0.80
2023-01-08T10:35:21.733Z,0.90
2023-01-08T10:36:21.726Z,0.70
2023-01-08T10:37:21.759Z,0.80
2023-01-08T10:38:21.773Z,0.90
2023-01-08T10:39:21.733Z,0.90
2023-01-08T10:40:21.757Z,1.10
2023-01-08T10:41:21.656Z,0.70
2023-01-08T10:42:21.654Z,0.80
2023-01-08T10:43:21.800Z,1.00
2023-01-08T10:44:21.633Z,0.80
2023-01-08T10:45:21.633Z,0.60
2023-01-08T10:46:21.602Z,0.80
2023-01-08T10:47:21.575Z,0.80
2023-01-08T10:48:21.575Z,0.70
2023-01-08T10:49:21.582Z,0.90
2023-01-08T10:50:21.593Z,0.90
2023-01-08T10:51:21.522Z,0.80
2023-01-08T10:52:21.549Z,1.00
2023-01-08T10:53:21.502Z,0.80
2023-01-08T10:54:21.502Z,0.80
2023-01-08T10:55:21.645Z,0.80
2023-01-08T10:56:21.467Z,0.80
2023-01-08T10:57:21.495Z,0.80
2023-01-08T10:58:21.441Z,1.00
2023-01-08T10:59:21.440Z,0.70
2023-01-08T11:00:21.583Z,0.70
2023-01-08T11:01:21.438Z,0.60
2023-01-08T11:02:21.433Z,0.70
2023-01-08T11:03:21.391Z,1.00
2023-01-08T11:04:21.369Z,0.70
2023-01-08T11:05:21.394Z,0.50
2023-01-08T11:06:21.416Z,0.60
2023-01-08T11:07:21.412Z,0.70
2023-01-08T11:08:23.149Z,0.70
2023-01-08T11:09:21.789Z,0.50
2023-01-08T11:10:21.290Z,0.50
2023-01-08T11:11:21.269Z,0.60
2023-01-08T11:12:21.250Z,0.50
2023-01-08T11:13:21.250Z,0.70
2023-01-08T11:14:21.235Z,0.70
2023-01-08T11:15:21.228Z,0.60
2023-01-08T11:16:21.230Z,0.60
2023-01-08T11:17:21.197Z,0.70
2023-01-08T11:18:21.586Z,0.80
2023-01-08T11:19:21.170Z,0.60
2023-01-08T11:20:21.154Z,0.60
2023-01-08T11:21:21.147Z,0.70
2023-01-08T11:22:21.137Z,0.50
2023-01-08T11:23:21.111Z,1.00
2023-01-08T11:24:21.109Z,0.90
2023-01-08T11:25:21.087Z,0.80
2023-01-08T11:26:21.116Z,0.80
2023-01-08T11:27:21.235Z,0.80
2023-01-08T11:28:21.057Z,0.90
2023-01-08T11:29:21.032Z,1.00
2023-01-08T11:30:21.028Z,0.70
2023-01-08T11:31:21.053Z,0.90
2023-01-08T11:32:21.005Z,0.90
2023-01-08T11:33:20.984Z,0.90
2023-01-08T11:34:21.135Z,0.90
2023-01-08T11:35:20.953Z,1.00
2023-01-08T11:36:20.948Z,1.20
2023-01-08T11:37:20.940Z,1.00
2023-01-08T11:38:20.914Z,0.90
2023-01-08T11:39:20.905Z,1.10
2023-01-08T11:40:20.884Z,0.80
2023-01-08T11:41:21.048Z,1.00
2023-01-08T11:42:20.853Z,0.90
2023-01-08T11:43:21.030Z,0.70
2023-01-08T11:44:20.834Z,0.90
2023-01-08T11:45:20.967Z,0.80
2023-01-08T11:46:20.805Z,0.80
2023-01-08T11:47:20.793Z,1.10
2023-01-08T11:48:20.962Z,0.60
2023-01-08T11:49:20.774Z,0.70
2023-01-08T11:50:20.752Z,0.90
2023-01-08T11:51:20.751Z,0.70
2023-01-08T11:52:20.722Z,0.70
2023-01-08T11:53:20.928Z,1.00
2023-01-08T11:54:20.692Z,0.90
2023-01-08T11:55:20.681Z,0.70
2023-01-08T11:56:20.673Z,0.70
2023-01-08T11:57:20.835Z,0.50
2023-01-08T11:58:20.651Z,0.60
2023-01-08T11:59:20.644Z,0.80
2023-01-08T12:00:20.794Z,0.70
2023-01-08T12:01:20.641Z,0.50
2023-01-08T12:02:20.645Z,0.70
2023-01-08T12:03:20.647Z,0.70
2023-01-08T12:04:20.591Z,0.70
2023-01-08T12:05:20.738Z,0.60
2023-01-08T12:06:20.560Z,0.80
2023-01-08T12:07:20.533Z,0.50
2023-01-08T12:08:20.522Z,0.50
2023-01-08T12:09:20.500Z,0.80
2023-01-08T12:10:20.708Z,0.80
2023-01-08T12:11:20.640Z,0.70
2023-01-08T12:12:20.461Z,0.60
2023-01-08T12:13:20.450Z,0.60
2023-01-08T12:14:20.441Z,0.50
2023-01-08T12:15:20.425Z,0.70
2023-01-08T12:16:20.613Z,0.70
2023-01-08T12:17:20.406Z,0.70
2023-01-08T12:18:20.378Z,0.90
2023-01-08T12:19:20.370Z,0.80
2023-01-08T12:20:20.542Z,0.60
2023-01-08T12:21:20.337Z,0.90
2023-01-08T12:22:20.337Z,0.60
2023-01-08T12:23:20.486Z,1.10
2023-01-08T12:24:20.338Z,1.30
2023-01-08T12:25:20.288Z,0.70
2023-01-08T12:26:20.301Z,0.80
2023-01-08T12:27:20.452Z,0.90
2023-01-08T12:28:20.294Z,1.20
2023-01-08T12:29:20.258Z,1.00
2023-01-08T12:30:20.261Z,1.00
2023-01-08T12:31:20.229Z,0.80
2023-01-08T12:32:20.228Z,0.50
2023-01-08T12:33:20.195Z,0.70
2023-01-08T12:34:20.176Z,0.70
2023-01-08T12:35:20.160Z,0.70
2023-01-08T12:36:20.144Z,0.60
2023-01-08T12:37:20.145Z,0.70
2023-01-08T12:38:20.170Z,0.70
2023-01-08T12:39:20.114Z,0.70
2023-01-08T12:40:20.159Z,0.80
2023-01-08T12:41:20.086Z,0.70
2023-01-08T12:42:20.094Z,0.70
2023-01-08T12:43:20.054Z,0.60
2023-01-08T12:44:20.214Z,0.60
2023-01-08T12:45:20.040Z,0.80
2023-01-08T12:46:20.065Z,1.00
2023-01-08T12:47:20.002Z,0.60
2023-01-08T12:48:19.997Z,0.60
2023-01-08T12:49:20.142Z,1.00
2023-01-08T12:50:20.005Z,0.70
2023-01-08T12:51:19.944Z,0.60
2023-01-08T12:52:19.939Z,0.70
2023-01-08T12:53:19.913Z,0.70
2023-01-08T12:54:20.113Z,0.60
2023-01-08T12:55:19.890Z,0.60
2023-01-08T12:56:19.882Z,0.60
2023-01-08T12:57:19.890Z,0.70
2023-01-08T12:58:19.862Z,0.90
2023-01-08T12:59:20.058Z,0.70
2023-01-08T13:00:19.852Z,0.70
2023-01-08T13:01:20.056Z,0.90
2023-01-08T13:02:19.917Z,1.00
2023-01-08T13:03:19.780Z,0.90
2023-01-08T13:04:19.819Z,1.10
2023-01-08T13:05:19.961Z,1.10
2023-01-08T13:06:19.776Z,1.40
2023-01-08T13:07:19.732Z,1.20
2023-01-08T13:08:19.720Z,1.30
2023-01-08T13:09:19.711Z,1.10
2023-01-08T13:10:19.718Z,0.90
2023-01-08T13:11:19.686Z,1.10
2023-01-08T13:12:19.667Z,0.60
2023-01-08T13:13:19.829Z,0.90
2023-01-08T13:14:19.652Z,0.90
2023-01-08T13:15:19.629Z,0.70
2023-01-08T13:16:19.719Z,0.70
2023-01-08T13:17:19.609Z,0.80
2023-01-08T13:18:19.777Z,0.90